Time;durP1;ratioP1;P1;durP2;ratioP2;P2;SDS_P1;SDS_P2;PMS_P1;PMS_P2;Temp;Humidity;BMP_temperature;BMP_pressure;BME280_temperature;BME280_humidity;BME280_pressure;Samples;Min_cycle;Max_cycle;Signal;HPM_P1;HPM_P2
2023/01/16 00:01:25;;;;;;;4.28;1.13;;;;;;;10.35;81.69;100308.50;5031710;28;20135;-51
2023/01/16 00:03:52;;;;;;;2.03;1.45;;;;;;;10.50;80.54;100324.25;5030681;28;20022;-60
2023/01/16 00:06:18;;;;;;;1.63;1.00;;;;;;;10.57;80.91;100314.28;5031498;28;20025;-52
2023/01/16 00:08:44;;;;;;;3.25;1.10;;;;;;;10.63;81.05;100304.56;5017560;28;20038;-56
2023/01/16 00:11:11;;;;;;;2.50;1.00;;;;;;;10.64;81.20;100296.31;5011821;28;20103;-53
2023/01/16 00:13:39;;;;;;;3.78;1.50;;;;;;;10.69;80.75;100291.13;5011845;28;20038;-59
2023/01/16 00:16:07;;;;;;;2.25;1.40;;;;;;;10.72;80.84;100293.38;5011892;28;20029;-55
2023/01/16 00:18:33;;;;;;;4.35;2.03;;;;;;;10.83;80.74;100297.19;5010409;28;20033;-54
2023/01/16 00:21:00;;;;;;;2.15;1.10;;;;;;;10.88;80.39;100307.22;5010593;28;20032;-58
2023/01/16 00:23:27;;;;;;;7.20;1.80;;;;;;;10.94;80.50;100303.66;5010058;28;20046;-66
2023/01/16 00:25:53;;;;;;;5.30;1.55;;;;;;;10.70;81.32;100305.31;5011830;28;20029;-65
2023/01/16 00:28:19;;;;;;;3.13;1.45;;;;;;;10.82;81.05;100324.97;5026528;28;20509;-68
2023/01/16 00:30:46;;;;;;;3.83;1.52;;;;;;;10.77;80.99;100317.63;5038292;28;20036;-66
2023/01/16 00:33:12;;;;;;;3.97;1.90;;;;;;;10.78;81.27;100321.94;5032574;28;20041;-67
2023/01/16 00:35:38;;;;;;;5.35;1.98;;;;;;;10.86;81.17;100322.69;5016417;28;20065;-67
2023/01/16 00:38:05;;;;;;;3.20;1.80;;;;;;;10.86;81.22;100320.00;5036450;28;20049;-66
2023/01/16 00:40:31;;;;;;;3.95;2.03;;;;;;;10.85;81.10;100311.16;5038134;28;20391;-66
2023/01/16 00:42:58;;;;;;;4.28;2.25;;;;;;;10.93;80.76;100299.34;5037906;28;20028;-66
2023/01/16 00:45:24;;;;;;;6.25;2.42;;;;;;;10.82;81.09;100295.53;5016911;28;20041;-66
2023/01/16 00:47:50;;;;;;;3.67;1.90;;;;;;;10.91;81.02;100290.72;5016510;28;20022;-66
2023/01/16 00:50:17;;;;;;;5.45;2.65;;;;;;;10.80;81.16;100285.03;5018571;28;20651;-66
2023/01/16 00:52:43;;;;;;;5.78;2.70;;;;;;;11.06;79.82;100264.41;5019329;28;20032;-67
2023/01/16 00:55:09;;;;;;;4.80;2.47;;;;;;;10.40;83.25;100255.16;5037708;28;20026;-67
2023/01/16 00:57:35;;;;;;;7.82;2.90;;;;;;;10.69;83.21;100252.84;5037830;28;20032;-67
2023/01/16 01:00:03;;;;;;;4.50;2.05;;;;;;;10.53;83.69;100240.84;5034799;28;20360;-66
2023/01/16 01:02:29;;;;;;;4.78;2.42;;;;;;;10.49;83.67;100239.63;5033897;28;20034;-67
2023/01/16 01:04:55;;;;;;;3.97;2.00;;;;;;;10.63;83.60;100243.00;5023742;28;20029;-66
2023/01/16 01:07:22;;;;;;;3.25;1.77;;;;;;;10.78;82.69;100260.38;5002835;28;20053;-65
2023/01/16 01:09:48;;;;;;;5.25;2.17;;;;;;;10.77;82.82;100261.41;5000000;28;20265;-67
2023/01/16 01:12:14;;;;;;;7.38;2.25;;;;;;;10.60;83.20;100260.31;5018048;28;20029;-66
2023/01/16 01:14:40;;;;;;;3.85;1.83;;;;;;;10.49;82.18;100261.88;5016358;28;20053;-67
2023/01/16 01:17:10;;;;;;;3.95;1.70;;;;;;;10.56;82.18;100259.97;4998195;28;20065;-66
2023/01/16 01:19:36;;;;;;;4.43;2.35;;;;;;;10.48;82.13;100256.72;4997711;28;20495;-67
2023/01/16 01:22:02;;;;;;;6.55;3.55;;;;;;;10.52;81.57;100253.41;5017766;28;20084;-67
2023/01/16 01:24:28;;;;;;;9.73;3.80;;;;;;;10.29;82.41;100256.69;5017860;28;20041;-67
2023/01/16 01:26:55;;;;;;;6.60;2.67;;;;;;;10.40;82.61;100254.34;5033397;28;20048;-67
2023/01/16 01:29:21;;;;;;;8.85;2.72;;;;;;;10.48;82.58;100264.75;5037516;28;20029;-67
2023/01/16 01:31:47;;;;;;;3.25;1.70;;;;;;;10.53;82.31;100265.72;5018838;28;20026;-68
2023/01/16 01:34:13;;;;;;;4.63;1.70;;;;;;;10.55;82.63;100265.53;5017722;28;20030;-67
2023/01/16 01:36:40;;;;;;;4.95;1.92;;;;;;;10.44;83.09;100258.22;5015826;28;20026;-67
2023/01/16 01:39:06;;;;;;;5.32;1.98;;;;;;;10.51;82.76;100253.63;5013672;28;20034;-71
2023/01/16 01:41:32;;;;;;;7.38;2.10;;;;;;;10.35;84.05;100251.50;5014932;28;20397;-67
2023/01/16 01:43:58;;;;;;;5.60;2.05;;;;;;;10.17;84.36;100241.53;5013198;28;20029;-68
2023/01/16 01:46:43;;;;;;;4.68;1.95;;;;;;;10.11;85.28;100232.53;4993641;28;20049;-66
2023/01/16 01:49:26;;;;;;;6.90;1.90;;;;;;;10.34;84.36;100220.44;4999213;28;20087;-67
2023/01/16 01:51:55;;;;;;;6.53;2.30;;;;;;;10.23;84.37;100224.63;4994894;28;20104;-67
2023/01/16 01:54:27;;;;;;;4.38;1.83;;;;;;;10.48;83.43;100222.75;5007374;28;20025;-68
2023/01/16 01:57:02;;;;;;;7.00;2.13;;;;;;;10.09;84.79;100217.72;5022159;28;20060;-67
2023/01/16 01:59:37;;;;;;;6.60;3.10;;;;;;;10.07;85.20;100220.63;5034173;28;20029;-68
2023/01/16 02:02:06;;;;;;;12.55;2.70;;;;;;;10.38;83.67;100222.44;5003782;28;20468;-67
2023/01/16 02:04:41;;;;;;;6.85;2.20;;;;;;;10.31;84.29;100227.84;5013643;28;20124;-68
2023/01/16 02:07:09;;;;;;;4.90;2.35;;;;;;;10.06;85.06;100229.69;5012072;28;20111;-67
2023/01/16 02:09:36;;;;;;;4.28;1.65;;;;;;;10.16;84.59;100230.03;5014325;28;20026;-67
2023/01/16 02:12:14;;;;;;;5.15;1.50;;;;;;;9.95;84.66;100230.41;5021627;28;20043;-67
2023/01/16 02:14:43;;;;;;;2.92;1.15;;;;;;;9.98;84.38;100227.28;5029566;28;20553;-67
2023/01/16 02:20:10;;;;;;;6.70;3.78;;;;;;;9.66;85.11;100240.66;5012748;28;20120;-67
2023/01/16 02:22:58;;;;;;;11.63;5.35;;;;;;;9.25;86.71;100238.38;4994387;28;20101;-67
2023/01/16 02:25:38;;;;;;;8.30;5.07;;;;;;;9.59;85.53;100242.53;5005866;28;20036;-67
2023/01/16 02:28:07;;;;;;;4.68;2.88;;;;;;;9.50;85.45;100227.78;5030000;28;20052;-67
2023/01/16 02:30:57;;;;;;;4.38;2.40;;;;;;;9.44;86.10;100224.13;5017937;28;20033;-67
2023/01/16 02:33:46;;;;;;;4.63;1.42;;;;;;;9.50;85.89;100214.44;5011698;28;20088;-67
2023/01/16 02:36:30;;;;;;;1.95;1.35;;;;;;;9.10;87.20;100206.59;4977560;28;20038;-68
2023/01/16 02:39:27;;;;;;;3.50;1.10;;;;;;;9.17;88.44;100203.91;5033434;28;20328;-68
2023/01/16 02:42:24;;;;;;;3.30;1.10;;;;;;;9.24;87.47;100196.69;5030393;28;20484;-67
2023/01/16 02:45:12;;;;;;;3.90;1.30;;;;;;;9.24;87.72;100199.34;5032890;28;20025;-67
2023/01/16 02:47:47;;;;;;;4.53;1.67;;;;;;;9.59;86.47;100193.63;5013194;28;20026;-66
2023/01/16 02:50:20;;;;;;;;;;;;;;;9.51;86.47;100184.81;5012922;28;20042;-65
2023/01/16 02:52:51;;;;;;;3.40;1.30;;;;;;;9.30;87.73;100176.31;5009118;28;20265;-67
2023/01/16 02:55:24;;;;;;;3.38;1.20;;;;;;;9.56;86.87;100181.53;4993671;28;20029;-66
2023/01/16 02:57:57;;;;;;;2.58;1.13;;;;;;;9.33;87.41;100175.88;5027584;28;20057;-66
2023/01/16 03:00:24;;;;;;;2.80;1.23;;;;;;;9.31;87.40;100172.63;5013165;28;20484;-66
2023/01/16 03:02:50;;;;;;;5.72;1.52;;;;;;;9.15;88.45;100158.72;5012945;28;20468;-67
2023/01/16 03:05:17;;;;;;;4.00;1.20;;;;;;;9.04;88.59;100156.72;5019216;28;20674;-66
2023/01/16 03:08:10;;;;;;;2.47;1.05;;;;;;;8.96;88.77;100148.97;5047106;23;20507;-66
2023/01/16 03:11:23;;;;;;;2.25;1.20;;;;;;;8.60;90.08;100147.66;5051776;28;20057;-66
2023/01/16 03:14:01;;;;;;;2.65;0.95;;;;;;;8.66;90.33;100144.16;5051430;28;20036;-66
2023/01/16 03:16:37;;;;;;;2.25;0.90;;;;;;;8.88;90.08;100141.19;5052345;28;20083;-66
2023/01/16 03:19:32;;;;;;;1.55;0.80;;;;;;;9.03;89.18;100138.25;5051753;28;20017;-67
2023/01/16 03:22:17;;;;;;;2.60;0.80;;;;;;;8.98;89.17;100137.03;5052582;28;20049;-67
2023/01/16 03:25:01;;;;;;;3.10;1.02;;;;;;;9.22;88.46;100150.69;5050523;28;20114;-67
2023/01/16 03:27:46;;;;;;;3.83;0.80;;;;;;;9.09;87.86;100142.75;5052487;28;20395;-67
2023/01/16 03:30:18;;;;;;;3.63;1.50;;;;;;;9.37;87.23;100151.22;5050645;28;20029;-68
2023/01/16 03:33:05;;;;;;;2.70;0.75;;;;;;;9.56;86.05;100162.81;5045490;28;20100;-68
2023/01/16 03:35:45;;;;;;;1.65;0.57;;;;;;;9.61;85.67;100168.34;5031883;28;20030;-67
2023/01/16 03:38:15;;;;;;;1.58;0.68;;;;;;;9.62;85.38;100164.63;5042163;28;20021;-67
2023/01/16 03:40:46;;;;;;;2.00;0.80;;;;;;;9.68;84.95;100158.41;5052157;28;20108;-67
2023/01/16 03:43:12;;;;;;;4.63;0.80;;;;;;;9.65;84.97;100150.00;5052213;28;20021;-67
2023/01/16 03:45:44;;;;;;;3.63;1.02;;;;;;;9.77;84.99;100151.78;5051658;28;20031;-68
2023/01/16 03:48:26;;;;;;;3.60;0.70;;;;;;;9.70;85.04;100150.97;5051326;28;20071;-67
2023/01/16 03:51:06;;;;;;;5.30;1.35;;;;;;;9.35;86.06;100147.94;5051361;28;20024;-67
2023/01/16 03:53:40;;;;;;;4.97;1.30;;;;;;;9.51;85.36;100144.75;5052086;28;20386;-67
2023/01/16 03:56:29;;;;;;;3.00;1.20;;;;;;;9.68;84.83;100141.56;5051287;28;20053;-67
2023/01/16 03:58:55;;;;;;;2.15;1.20;;;;;;;9.62;84.60;100126.41;5033867;28;20558;-67
2023/01/16 04:01:57;;;;;;;2.85;0.90;;;;;;;9.63;84.94;100128.84;5051212;28;20091;-67
2023/01/16 04:04:57;;;;;;;3.20;1.50;;;;;;;9.60;84.69;100123.91;5007295;28;20049;-67
2023/01/16 04:07:55;;;;;;;3.72;1.48;;;;;;;9.59;84.00;100119.63;5004075;28;20509;-68
2023/01/16 04:10:40;;;;;;;4.38;1.63;;;;;;;9.34;84.52;100108.91;5039716;28;20069;-68
2023/01/16 04:13:21;;;;;;;2.10;1.40;;;;;;;9.35;85.43;100104.41;5051976;28;20106;-67
2023/01/16 04:15:54;;;;;;;4.53;1.90;;;;;;;9.32;86.41;100099.47;5051333;28;20036;-67
2023/01/16 04:18:26;;;;;;;6.38;2.78;;;;;;;9.35;87.18;100091.03;5051727;28;20491;-67
2023/01/16 04:20:52;;;;;;;3.88;2.63;;;;;;;9.30;87.89;100091.69;5051478;28;20102;-67
2023/01/16 04:23:18;;;;;;;5.75;2.67;;;;;;;9.27;87.27;100084.09;5051332;28;20471;-66
2023/01/16 04:25:45;;;;;;;3.80;2.42;;;;;;;9.46;85.89;100082.34;5051542;28;20029;-67
2023/01/16 04:28:12;;;;;;;5.97;2.55;;;;;;;9.08;87.61;100066.38;5051471;28;20024;-67
2023/01/16 04:30:38;;;;;;;5.10;2.40;;;;;;;9.25;86.51;100068.28;5051570;28;20096;-67
2023/01/16 04:33:05;;;;;;;3.47;1.63;;;;;;;9.25;87.64;100059.47;5046588;28;20132;-68
2023/01/16 04:35:32;;;;;;;2.47;1.30;;;;;;;9.52;85.85;100063.56;5031333;28;20147;-67
2023/01/16 04:37:59;;;;;;;8.75;2.40;;;;;;;9.48;85.23;100066.88;5031652;28;20099;-67
2023/01/16 04:40:25;;;;;;;3.45;1.90;;;;;;;9.37;85.79;100051.56;5047385;28;20036;-67
2023/01/16 04:42:51;;;;;;;3.83;2.10;;;;;;;9.30;86.25;100045.47;5051326;28;20067;-67
2023/01/16 04:45:18;;;;;;;4.30;2.10;;;;;;;8.90;87.80;100043.88;5051131;28;20021;-67
2023/01/16 04:47:48;;;;;;;3.47;1.92;;;;;;;8.97;88.10;100041.16;5051351;28;20490;-68
2023/01/16 04:50:15;;;;;;;4.13;2.03;;;;;;;8.74;88.86;100023.03;5051370;28;20056;-67
2023/01/16 04:52:43;;;;;;;4.40;2.60;;;;;;;8.68;90.10;100024.72;5033445;28;20107;-67
2023/01/16 04:55:10;;;;;;;4.22;2.55;;;;;;;8.60;90.79;100021.47;5051129;28;20032;-67
2023/01/16 04:57:36;;;;;;;4.20;2.50;;;;;;;8.75;90.46;100019.34;5051202;28;20021;-67
2023/01/16 05:00:05;;;;;;;2.65;2.00;;;;;;;8.82;89.71;100014.75;5051330;28;20029;-67
2023/01/16 05:02:31;;;;;;;3.13;2.50;;;;;;;8.60;90.91;100011.59;5050742;28;20028;-68
2023/01/16 05:04:57;;;;;;;4.03;2.53;;;;;;;8.56;92.04;99991.75;5050940;28;20387;-69
2023/01/16 05:07:26;;;;;;;4.22;2.28;;;;;;;8.92;90.29;99992.94;5050764;28;20036;-67
2023/01/16 05:09:53;;;;;;;3.92;2.47;;;;;;;9.12;88.64;100009.66;5051472;28;20029;-67
2023/01/16 05:12:19;;;;;;;3.72;2.15;;;;;;;8.92;88.87;99998.28;5051156;28;20029;-68
2023/01/16 05:14:45;;;;;;;3.13;2.20;;;;;;;8.96;89.13;99986.97;5053486;28;20024;-68
2023/01/16 05:17:11;;;;;;;2.70;2.28;;;;;;;8.96;89.40;99975.47;5054531;28;20449;-68
2023/01/16 05:19:38;;;;;;;3.50;2.60;;;;;;;8.94;89.42;99970.38;5054814;28;20021;-68
2023/01/16 05:22:04;;;;;;;3.03;2.15;;;;;;;8.91;89.97;99970.78;5055044;28;20056;-68
2023/01/16 05:24:30;;;;;;;4.18;2.33;;;;;;;8.70;90.72;99969.28;5054374;28;20025;-68
2023/01/16 05:26:56;;;;;;;3.42;1.98;;;;;;;8.83;90.02;99956.88;5036583;28;20414;-68
2023/01/16 05:29:23;;;;;;;3.50;1.65;;;;;;;8.90;89.61;99963.00;5054769;28;20021;-68
2023/01/16 05:31:49;;;;;;;3.85;1.20;;;;;;;8.69;89.73;99959.66;5054325;28;20039;-68
2023/01/16 05:34:15;;;;;;;2.83;1.30;;;;;;;8.71;89.92;99959.41;5039597;28;20133;-68
2023/01/16 05:36:41;;;;;;;3.70;1.27;;;;;;;8.63;90.32;99965.84;5034201;28;20431;-68
2023/01/16 05:39:09;;;;;;;3.78;1.85;;;;;;;8.51;90.82;99959.56;5034486;28;20027;-68
2023/01/16 05:41:35;;;;;;;4.97;1.40;;;;;;;8.47;90.81;99963.69;5034347;28;20099;-67
2023/01/16 05:44:01;;;;;;;2.15;1.20;;;;;;;8.66;90.48;99968.09;5034659;28;20026;-68
2023/01/16 05:46:28;;;;;;;2.40;0.95;;;;;;;8.37;90.74;99965.97;5034119;28;20705;-67
2023/01/16 05:48:54;;;;;;;3.63;1.13;;;;;;;8.29;91.03;99968.88;5054127;28;20079;-68
2023/01/16 05:51:20;;;;;;;2.88;1.10;;;;;;;8.10;92.03;99963.41;5054193;28;20033;-67
2023/01/16 05:53:50;;;;;;;2.72;1.77;;;;;;;8.05;92.82;99965.91;5054184;28;20033;-68
2023/01/16 05:56:22;;;;;;;2.35;0.90;;;;;;;7.99;92.49;99961.38;5053901;28;20059;-68
2023/01/16 05:58:48;;;;;;;5.70;1.10;;;;;;;8.36;92.64;99953.69;5054070;28;20104;-68
2023/01/16 06:01:14;;;;;;;1.83;1.20;;;;;;;8.37;91.46;99947.31;5053850;28;20087;-67
2023/01/16 06:03:40;;;;;;;2.45;1.00;;;;;;;8.37;91.56;99942.78;5053733;28;20372;-67
2023/01/16 06:06:07;;;;;;;3.15;1.23;;;;;;;8.47;90.89;99945.00;5051070;28;20075;-66
2023/01/16 06:08:33;;;;;;;3.13;1.42;;;;;;;8.52;90.06;99939.84;5053891;28;20024;-68
2023/01/16 06:10:59;;;;;;;2.92;1.20;;;;;;;8.43;91.18;99930.47;5052822;28;20027;-68
2023/01/16 06:13:25;;;;;;;2.90;1.33;;;;;;;8.65;90.41;99945.09;5051396;28;20040;-67
2023/01/16 06:15:52;;;;;;;4.28;1.27;;;;;;;8.61;90.40;99933.25;5052456;28;20120;-67
2023/01/16 06:18:18;;;;;;;2.67;1.30;;;;;;;8.41;91.63;99935.19;5053728;28;20284;-67
2023/01/16 06:20:44;;;;;;;3.03;1.10;;;;;;;8.49;91.87;99929.59;5050198;28;20112;-68
2023/01/16 06:23:10;;;;;;;2.80;1.30;;;;;;;8.35;91.89;99928.84;5053453;28;20112;-67
2023/01/16 06:25:37;;;;;;;2.55;1.40;;;;;;;8.50;91.80;99917.94;5052016;28;20111;-68
2023/01/16 06:28:03;;;;;;;2.60;1.25;;;;;;;8.55;92.04;99917.25;5053779;28;20021;-67
2023/01/16 06:30:29;;;;;;;2.75;1.20;;;;;;;8.60;92.11;99912.09;5051718;28;20055;-68
2023/01/16 06:32:55;;;;;;;2.00;1.27;;;;;;;8.58;91.91;99903.50;5053175;28;20059;-67
2023/01/16 06:35:22;;;;;;;2.08;1.20;;;;;;;8.64;92.07;99907.97;5050961;28;20029;-67
2023/01/16 06:37:48;;;;;;;3.72;1.35;;;;;;;8.62;91.46;99896.72;5053368;28;20049;-67
2023/01/16 06:40:14;;;;;;;2.60;1.35;;;;;;;8.62;91.56;99892.19;5050324;28;20387;-68
2023/01/16 06:42:41;;;;;;;3.28;1.70;;;;;;;8.57;91.78;99884.00;5051612;28;20574;-67
2023/01/16 06:45:07;;;;;;;4.40;1.65;;;;;;;8.38;92.58;99879.63;5052912;28;20399;-67
2023/01/16 06:47:34;;;;;;;2.83;1.50;;;;;;;8.37;93.16;99873.47;5051347;28;20854;-67
2023/01/16 06:50:00;;;;;;;2.15;1.20;;;;;;;8.27;94.00;99870.41;5053433;28;20033;-67
2023/01/16 06:52:26;;;;;;;2.10;1.35;;;;;;;8.40;93.22;99864.25;5051915;28;20475;-67
2023/01/16 06:54:52;;;;;;;1.38;1.10;;;;;;;8.44;93.12;99857.44;5052474;28;20033;-67
2023/01/16 06:57:19;;;;;;;3.97;1.20;;;;;;;8.25;93.95;99855.69;5052830;28;20095;-67
2023/01/16 06:59:50;;;;;;;2.88;1.10;;;;;;;8.42;92.26;99846.97;5050197;28;20430;-68
2023/01/16 07:02:17;;;;;;;1.20;1.00;;;;;;;8.35;92.23;99837.38;5040029;23;20530;-66
2023/01/16 07:04:44;;;;;;;1.23;1.00;;;;;;;8.37;92.03;99830.00;5031053;28;20039;-65
2023/01/16 07:07:10;;;;;;;1.63;0.77;;;;;;;8.39;92.33;99830.63;5032795;28;20052;-65
2023/01/16 07:09:36;;;;;;;3.63;1.20;;;;;;;8.39;92.69;99825.28;5030285;28;20040;-66
2023/01/16 07:12:03;;;;;;;2.15;1.23;;;;;;;8.28;93.38;99821.44;5032553;28;20022;-66
2023/01/16 07:22:45;;;;;;;2.15;1.50;;;;;;;8.24;94.38;99792.75;5032356;28;20857;-67
2023/01/16 07:25:16;;;;;;;2.13;1.77;;;;;;;8.23;93.81;99786.59;5032103;28;20472;-66
2023/01/16 07:27:47;;;;;;;1.67;1.58;;;;;;;8.42;91.85;99784.84;5032294;28;20091;-66
2023/01/16 07:30:14;;;;;;;3.65;1.60;;;;;;;8.24;93.06;99777.56;5032361;28;20030;-66
2023/01/16 07:32:41;;;;;;;1.98;1.20;;;;;;;8.24;92.64;99772.22;5030665;28;20116;-66
2023/01/16 07:35:07;;;;;;;2.75;1.42;;;;;;;8.13;93.46;99765.75;5030425;28;20068;-66
2023/01/16 07:37:34;;;;;;;1.35;0.90;;;;;;;8.12;93.41;99764.13;5031542;28;20040;-68
2023/01/16 07:40:00;;;;;;;2.25;0.80;;;;;;;8.05;93.52;99759.84;5030249;28;20034;-67
2023/01/16 07:42:26;;;;;;;9.05;1.20;;;;;;;8.13;93.01;99763.09;5030926;28;20464;-67
2023/01/16 07:44:52;;;;;;;1.10;0.70;;;;;;;7.94;92.47;99756.06;5031712;28;20037;-67
2023/01/16 07:47:19;;;;;;;1.83;0.70;;;;;;;7.90;93.60;99750.31;5031543;28;20430;-67
2023/01/16 07:49:45;;;;;;;1.80;0.70;;;;;;;7.97;92.13;99744.94;5030863;28;20025;-66
2023/01/16 07:52:11;;;;;;;1.83;0.65;;;;;;;7.96;91.28;99739.84;5031975;28;20445;-67
2023/01/16 07:54:40;;;;;;;2.40;0.80;;;;;;;8.04;92.29;99737.72;5014569;28;20136;-68
2023/01/16 07:57:06;;;;;;;0.93;0.60;;;;;;;7.94;92.98;99737.41;5012308;28;20045;-67
2023/01/16 07:59:32;;;;;;;1.30;0.82;;;;;;;7.82;93.40;99741.75;5011706;28;20073;-67
2023/01/16 08:01:58;;;;;;;1.65;0.77;;;;;;;7.88;93.22;99738.25;5012079;28;20049;-67
2023/01/16 08:04:25;;;;;;;1.33;1.00;;;;;;;7.68;93.92;99735.72;5010846;28;20109;-67
2023/01/16 08:06:51;;;;;;;3.33;1.23;;;;;;;7.81;93.79;99740.13;5012057;28;20114;-67
2023/01/16 08:09:17;;;;;;;1.67;1.00;;;;;;;7.66;94.85;99724.44;5010727;28;20029;-67
2023/01/16 08:11:46;;;;;;;2.22;1.50;;;;;;;7.72;94.81;99712.13;5012143;28;20611;-67
2023/01/16 08:14:13;;;;;;;1.30;1.20;;;;;;;7.68;95.25;99709.91;5010638;28;20029;-67
2023/01/16 08:16:40;;;;;;;2.08;1.00;;;;;;;7.84;93.78;99710.41;5011827;28;20026;-67
2023/01/16 08:19:06;;;;;;;1.13;0.73;;;;;;;7.89;93.95;99699.94;5010244;28;20092;-67
2023/01/16 08:21:32;;;;;;;0.57;0.57;;;;;;;7.86;92.65;99701.16;5012182;28;20030;-66
2023/01/16 08:23:59;;;;;;;1.80;0.70;;;;;;;7.77;91.73;99685.66;5009965;28;20415;-66
2023/01/16 08:26:25;;;;;;;2.15;0.70;;;;;;;7.70;93.07;99682.22;5009768;28;20026;-66
2023/01/16 08:28:52;;;;;;;0.95;0.52;;;;;;;7.66;93.23;99671.16;4999094;28;20033;-66
2023/01/16 08:31:19;;;;;;;1.08;0.68;;;;;;;7.44;95.34;99677.88;4992382;28;20396;-66
2023/01/16 08:33:46;;;;;;;1.45;0.80;;;;;;;7.60;94.80;99664.84;5011442;28;20109;-67
2023/01/16 08:36:15;;;;;;;1.75;0.80;;;;;;;7.70;94.01;99664.38;5011489;28;20029;-67
2023/01/16 08:38:42;;;;;;;2.22;1.00;;;;;;;7.77;93.09;99669.66;5011523;28;20034;-66
2023/01/16 08:51:21;;;;;;;1.83;0.90;;;;;;;7.68;92.50;99669.94;5011655;28;20377;-67
2023/01/16 08:52:10;;;;;;;1.67;0.60;;;;;;;7.61;92.58;99663.84;5015973;28;20097;-67
2023/01/16 08:54:36;;;;;;;0.98;0.60;;;;;;;7.49;94.35;99660.22;5015235;28;20101;-67
2023/01/16 08:57:03;;;;;;;2.17;0.68;;;;;;;7.47;94.19;99650.84;5015602;28;20033;-67
2023/01/16 08:59:33;;;;;;;1.95;0.50;;;;;;;7.30;94.92;99659.31;5015467;28;20495;-67
2023/01/16 09:02:03;;;;;;;1.00;0.50;;;;;;;7.36;95.28;99660.31;5015097;28;20041;-68
2023/01/16 09:04:29;;;;;;;1.25;0.50;;;;;;;7.49;95.24;99668.22;5015191;28;20032;-67
2023/01/16 09:06:56;;;;;;;1.42;0.40;;;;;;;7.55;93.71;99666.53;5015483;28;20022;-67
2023/01/16 09:09:22;;;;;;;1.92;0.47;;;;;;;7.50;94.07;99677.03;5015309;28;20072;-67
2023/01/16 09:14:44;;;;;;;0.40;0.30;;;;;;;7.43;95.02;99684.22;5013756;28;20447;-70
2023/01/16 09:17:10;;;;;;;1.42;0.50;;;;;;;7.61;93.83;99677.16;4995735;28;20023;-67
2023/01/16 09:19:37;;;;;;;1.30;0.50;;;;;;;7.60;93.55;99680.84;4997844;28;20101;-68
2023/01/16 09:22:08;;;;;;;1.25;0.60;;;;;;;7.49;94.10;99686.84;5015159;28;20449;-67
2023/01/16 09:24:35;;;;;;;3.03;0.75;;;;;;;7.61;93.20;99692.34;5013413;28;20040;-67
2023/01/16 09:27:02;;;;;;;1.08;0.40;;;;;;;7.60;92.89;99691.50;5013685;28;20642;-67
2023/01/16 09:29:28;;;;;;;2.42;0.52;;;;;;;7.67;92.55;99689.63;5014943;28;20037;-66
2023/01/16 09:31:54;;;;;;;1.13;0.55;;;;;;;7.66;92.66;99703.97;5014995;28;20045;-67
2023/01/16 09:34:21;;;;;;;0.73;0.50;;;;;;;7.59;92.47;99708.50;5013123;28;20033;-67
2023/01/16 09:36:47;;;;;;;1.20;0.50;;;;;;;7.65;92.16;99706.84;5014641;28;20482;-66
2023/01/16 09:39:13;;;;;;;2.78;0.50;;;;;;;7.67;91.87;99710.94;5013771;28;20034;-67
2023/01/16 09:44:52;;;;;;;1.15;0.73;;;;;;;7.65;93.07;99704.97;4982775;28;20060;-67
2023/01/16 09:47:24;;;;;;;0.68;0.50;;;;;;;7.56;92.98;99695.63;5013074;28;20034;-66
2023/01/16 09:50:06;;;;;;;0.57;0.43;;;;;;;7.61;92.66;99700.31;5014340;28;20030;-66
2023/01/16 09:58:36;;;;;;;1.45;0.40;;;;;;;7.43;92.96;99710.84;5013285;28;20044;-66
2023/01/16 10:01:19;;;;;;;1.23;0.50;;;;;;;7.33;93.18;99714.81;5013802;28;20038;-66
2023/01/16 10:03:45;;;;;;;3.58;0.68;;;;;;;7.34;93.82;99707.63;5012566;28;20387;-66
2023/01/16 10:06:20;;;;;;;1.85;0.70;;;;;;;7.37;93.72;99718.66;5014226;28;20057;-66
2023/01/16 10:08:55;;;;;;;3.50;0.60;;;;;;;7.31;93.87;99721.34;5013220;28;20024;-66
2023/01/16 10:11:25;;;;;;;1.45;0.50;;;;;;;7.30;92.76;99727.72;5013068;28;20029;-65
2023/01/16 10:14:07;;;;;;;3.50;0.50;;;;;;;7.16;94.62;99726.94;5014084;28;20049;-67
2023/01/16 10:17:10;;;;;;;1.48;0.60;;;;;;;7.27;94.30;99725.47;5012617;28;20626;-66
2023/01/16 10:20:04;;;;;;;1.58;0.70;;;;;;;7.30;94.40;99735.69;5014051;28;20029;-65
2023/01/16 10:23:07;;;;;;;3.28;0.70;;;;;;;7.12;94.95;99737.22;5012543;28;20044;-67
2023/01/16 10:26:00;;;;;;;0.70;0.50;;;;;;;7.14;95.34;99734.31;5013740;28;20033;-66
2023/01/16 10:29:05;;;;;;;2.00;0.70;;;;;;;7.23;95.22;99743.72;4973924;28;20042;-66
2023/01/16 10:31:45;;;;;;;1.77;0.47;;;;;;;7.20;95.00;99748.63;4995183;28;20065;-66
2023/01/16 10:34:25;;;;;;;1.95;0.40;;;;;;;7.20;95.42;99764.59;5013216;28;20033;-67
2023/01/16 10:36:57;;;;;;;3.80;0.60;;;;;;;7.14;95.94;99760.94;5011817;28;20113;-67
2023/01/16 10:39:31;;;;;;;2.67;0.50;;;;;;;7.32;95.12;99773.56;5013518;28;20034;-65
2023/01/16 10:51:00;;;;;;;2.13;0.60;;;;;;;7.15;94.56;99803.31;5012030;28;20388;-66
2023/01/16 10:53:27;;;;;;;6.50;0.88;;;;;;;7.12;96.49;99819.69;5013144;28;20041;-64
2023/01/16 10:55:55;;;;;;;2.65;0.52;;;;;;;7.12;96.52;99816.22;5011781;28;20538;-66
2023/01/16 10:58:29;;;;;;;1.95;0.38;;;;;;;7.07;97.51;99819.50;5013444;28;20060;-65
2023/01/16 11:01:01;;;;;;;1.83;0.70;;;;;;;7.10;97.35;99824.41;5011945;28;20100;-65
2023/01/16 11:03:39;;;;;;;1.35;0.50;;;;;;;7.05;97.45;99826.03;5013287;28;20029;-66
2023/01/16 11:06:09;;;;;;;2.08;0.50;;;;;;;7.05;97.88;99824.22;5011491;28;20038;-66
2023/01/16 11:08:35;;;;;;;4.22;0.55;;;;;;;7.06;97.13;99827.69;5013057;28;20029;-66
2023/01/16 11:11:02;;;;;;;2.22;0.40;;;;;;;7.08;97.12;99829.13;5010783;28;20129;-66
2023/01/16 11:19:18;;;;;;;2.17;0.40;;;;;;;7.08;95.98;99830.97;5013236;28;20033;-65
2023/01/16 11:21:53;;;;;;;0.52;0.32;;;;;;;7.09;96.40;99828.09;5012907;28;20484;-66
2023/01/16 11:24:21;;;;;;;1.50;0.50;;;;;;;7.10;96.91;99828.91;5012947;28;20515;-66
2023/01/16 11:26:58;;;;;;;1.05;0.45;;;;;;;7.12;96.48;99829.53;5011376;28;20279;-66
2023/01/16 11:29:31;;;;;;;0.60;0.30;;;;;;;7.11;96.51;99833.22;5012569;28;20014;-66
2023/01/16 11:32:03;;;;;;;1.48;0.20;;;;;;;7.22;95.59;99842.38;5011584;28;20076;-66
2023/01/16 11:34:30;;;;;;;0.20;0.20;;;;;;;7.19;95.84;99840.16;5011062;28;20041;-66
2023/01/16 11:37:01;;;;;;;0.20;0.20;;;;;;;7.19;95.58;99840.97;5012485;28;20388;-65
2023/01/16 11:39:31;;;;;;;1.67;0.30;;;;;;;7.22;95.88;99847.69;5010754;28;20038;-65
2023/01/16 11:46:02;;;;;;;0.65;0.30;;;;;;;7.23;96.21;99855.50;5012484;28;20423;-66
2023/01/16 11:47:44;;;;;;;1.67;0.17;;;;;;;7.23;94.94;99860.00;5010795;28;20398;-66
2023/01/16 11:50:36;;;;;;;0.05;0.05;;;;;;;7.28;93.41;99860.22;5011164;28;20022;-66
2023/01/16 11:53:02;;;;;;;1.77;0.20;;;;;;;7.22;94.37;99863.66;5012266;28;20114;-66
2023/01/16 11:55:42;;;;;;;1.77;0.50;;;;;;;7.29;94.72;99860.00;5012186;28;20484;-67
2023/01/16 11:58:16;;;;;;;0.40;0.20;;;;;;;7.29;96.32;99864.50;5011173;28;20061;-67
2023/01/16 12:01:07;;;;;;;0.50;0.20;;;;;;;7.32;95.84;99859.56;5010311;28;20052;-67
2023/01/16 12:03:42;;;;;;;0.55;0.10;;;;;;;7.27;95.73;99870.00;5010386;28;20283;-68
2023/01/16 12:06:38;;;;;;;0.75;0.28;;;;;;;7.31;95.71;99873.91;5000311;28;20056;-67
2023/01/16 12:09:31;;;;;;;8.38;0.30;;;;;;;7.32;95.65;99885.38;4992427;28;20113;-67
2023/01/16 12:14:17;;;;;;;1.52;0.20;;;;;;;7.22;96.34;99883.16;5004800;28;20030;-66
2023/01/16 12:14:53;;;;;;;0.30;0.20;;;;;;;7.35;95.77;99884.97;5011539;28;20114;-66
2023/01/16 12:17:25;;;;;;;1.40;0.20;;;;;;;7.29;95.54;99883.13;5012192;28;20112;-66
2023/01/16 12:20:16;;;;;;;0.32;0.20;;;;;;;7.39;94.79;99899.50;5011243;28;20028;-67
2023/01/16 12:23:01;;;;;;;0.10;0.10;;;;;;;7.37;95.24;99901.53;5011198;28;20504;-67
2023/01/16 12:25:35;;;;;;;0.52;0.20;;;;;;;7.37;94.89;99899.69;5009986;28;20167;-67
2023/01/16 12:28:14;;;;;;;2.65;0.20;;;;;;;7.39;95.66;99897.66;5011657;28;20034;-67
2023/01/16 12:31:49;;;;;;;0.77;0.20;;;;;;;7.41;95.20;99898.25;5008558;28;20033;-68
2023/01/16 12:34:15;;;;;;;0.73;0.10;;;;;;;7.49;94.44;99891.88;5004293;28;20033;-67
2023/01/16 12:37:04;;;;;;;0.88;0.10;;;;;;;7.40;93.61;99899.28;5005922;28;20034;-67
2023/01/16 12:39:53;;;;;;;0.22;0.20;;;;;;;7.44;93.25;99901.50;5005976;28;20023;-66
2023/01/16 12:45:36;;;;;;;0.13;0.10;;;;;;;7.39;92.91;99902.16;4995624;28;20041;-69
2023/01/16 12:48:29;;;;;;;0.20;0.10;;;;;;;7.39;92.54;99897.66;5048047;23;20049;-68
2023/01/16 12:51:19;;;;;;;0.75;0.20;;;;;;;7.39;92.34;99904.81;5031433;28;20033;-68